Hesperia, CA (92340)

10:09 PST le 01 février 2015 (GMT -0800)
APRSWXNET Hesperia CA US | Change Station
CLOSE
Current Station
Stations météorologiques personnelles
Location: Hesperia, CA
Altitude: 3051 ft
Stations météo à proximité

Alt. 3051 ft 34.42 °N, 117.27 °W | Updated 36 minutes ago

Ciel dégagé
Ciel dégagé
57 ° F
Paraît 57 ° F
N
0
Vent Variable Vent de ONO
Gusts 3.0 mph

Aujourd'hui
Haut(e) -- | Bas -- ° F
--% Risque de précip.
Hier
Haut(e) -- | Bas -- ° F
Precip. -- pouce
6:46 AM 5:18 PM
Lune gibbeuse croissante, 95% visible
Pression 30.20 pouce
Visibilité 10.0 Miles terrestres
Nuages Ciel dégagé
Point de rosée 42 ° F
Humidité 57%
Précipitations 0.00 pouce
Profondeur de la couche neigeuse Non disponible.
UV 3 sur 12
Pollen 6.90 sur 12
Qualité de l'air Non disponible.
Flu Activity Non disponible.
METAR KVCV 011755Z AUTO 15003KT 10SM CLR 12/03 A3020 RMK AO2

More Conditions Fewer Conditions

Pression 30.20 pouce
Visibilité 10.0 Miles terrestres
Nuages Ciel dégagé
Point de rosée 42 ° F
Humidité 57%
Précipitations 0.00 pouce
Profondeur de la couche neigeuse Non disponible.
UV 3 sur 12
Pollen 6.90 sur 12
Qualité de l'air Non disponible.
Flu Activity Non disponible.
METAR KVCV 011755Z AUTO 15003KT 10SM CLR 12/03 A3020 RMK AO2

More Conditions Fewer Conditions

10-Day Weather Forecast

Almanac

Astronomie

Feb. 01, 2015 Lever Coucher
Temps réel
Crépuscule civil
Crépuscule nautique
Crépuscule astronomique
Lune
Durée de lumière visible
Longueur du jour
Tomorrow will be .
, % of the Moon is Illuminated

Extrêmes aujourd'hui

State Highs State Lows

Community

WunderPhotos

Upload Photos

1,792,417 Photos téléchargées !

WunderBlogs® & News

Nearby

Qualité de l'air

  Qualité de l'air Indice de la qualité de l'air Polluant
Not available.

Épaisseur de neige

Station Depth Altitude

Activité sismique

Ville Distance Mag. Time & Date
Minimum magnitude displayed is 2.5.

Températures des eaux côtières

Lieu Température

Stations météo à proximité